KIAH/IAH METAR and TAF weather

Enter ICAO airport designator
Station Type Date Time Source
KIAH METAR 2020/01/19 13:53 UTC NOAA

KIAH 191353Z 03013KT 10SM FEW250 07/M04 A3044 RMK AO2 SLP310 T00671044


Station Type Date Time Source
KIAH Decoded METAR 2020/01/19 13:53 UTC NOAA

HOUSTON INTERCONTINENTAL, TX, United States (KIAH) 30-00N 095-22W 36M
Jan 19, 2020 - 08:53 AM EST / 2020.01.19 1353 UTC
Wind: from the NNE (030 degrees) at 15 MPH (13 KT):0
Visibility: 10 mile(s):0
Sky conditions: mostly clear
Temperature: 44.1 F (6.7 C)
Dew Point: 24.1 F (-4.4 C)
Relative Humidity: 44%
Pressure (altimeter): 30.44 in. Hg (1030 hPa)
ob: KIAH 191353Z 03013KT 10SM FEW250 07/M04 A3044 RMK AO2 SLP310 T00671044
cycle: 14

Station Type Date Time Source
KIAH TAF 2020/01/19 12:27 UTC NOAA

TAF KIAH 191124Z 1912/2018 01011KT P6SM FEW250
FM191400 03015G22KT P6SM FEW250
FM192300 02010KT P6SM SKC
FM200300 36004KT P6SM SKC
FM201500 03007KT P6SM SKC

Example: see airport list